Time,TemperatureF,DewpointF,PressureIn,WindDirection,WindDirectionDegrees,WindSpeedMPH,WindSpeedGustMPH,Humidity,HourlyPrecipIn,Conditions,Clouds,dailyrainin,SolarRadiationWatts/m^2,SoftwareType,DateUTC
2013-01-10 08:40:00,53.3,44.9,30.40,North,32767,-999.0,0.0,73,0.00,,,0.00,28,Wunderground v.1.15,2013-01-10 13:40:00,
2013-01-10 08:50:00,53.2,44.4,30.40,North,32767,-999.0,0.0,72,0.00,,,0.00,32,Wunderground v.1.15,2013-01-10 13:50:00,
2013-01-10 09:00:00,53.2,45.1,30.40,North,32767,-999.0,0.0,74,0.00,,,0.00,51,Wunderground v.1.15,2013-01-10 14:00:00,
2013-01-10 09:10:00,53.3,43.0,30.41,North,32767,-999.0,0.0,68,0.00,,,0.00,86,Wunderground v.1.15,2013-01-10 14:10:00,
2013-01-10 09:15:00,53.6,43.3,30.41,North,32767,-999.0,0.0,68,0.00,,,0.00,77,Wunderground v.1.15,2013-01-10 14:15:00,
2013-01-10 09:20:00,53.8,43.5,30.41,North,32767,-999.0,0.0,68,0.00,,,0.00,76,Wunderground v.1.15,2013-01-10 14:20:00,
2013-01-10 09:25:00,54.1,42.6,30.41,NNE,17,2.0,2.0,65,0.00,,,0.00,151,Wunderground v.1.15,2013-01-10 14:25:00,
2013-01-10 09:30:00,54.2,41.5,30.41,NE,48,1.0,4.0,62,0.00,,,0.00,116,Wunderground v.1.15,2013-01-10 14:30:00,
2013-01-10 09:35:00,54.7,41.9,30.42,NNE,28,2.0,4.0,62,0.00,,,0.00,111,Wunderground v.1.15,2013-01-10 14:35:00,
2013-01-10 09:45:00,55.4,42.2,30.42,NE,37,1.0,2.0,61,0.00,,,0.00,100,Wunderground v.1.15,2013-01-10 14:45:00,
2013-01-10 09:55:00,56.0,41.0,30.41,NE,42,4.0,4.0,57,0.00,,,0.00,104,Wunderground v.1.15,2013-01-10 14:55:00,
2013-01-10 10:00:00,56.2,39.3,30.41,NNE,16,3.0,3.0,53,0.00,,,0.00,93,Wunderground v.1.15,2013-01-10 15:00:00,
2013-01-10 10:10:00,56.5,39.6,30.41,NNE,30,2.0,2.0,53,0.00,,,0.00,102,Wunderground v.1.15,2013-01-10 15:10:00,
2013-01-10 10:15:00,56.6,40.1,30.41,North,7,1.0,2.0,54,0.00,,,0.00,83,Wunderground v.1.15,2013-01-10 15:15:00,
2013-01-10 10:25:00,56.5,40.0,30.41,NNE,16,0.0,0.0,54,0.00,,,0.00,118,Wunderground v.1.15,2013-01-10 15:25:00,
2013-01-10 10:30:00,56.6,39.7,30.41,North,0,1.0,1.0,53,0.00,,,0.00,116,Wunderground v.1.15,2013-01-10 15:30:00,
2013-01-10 10:40:00,56.5,39.6,30.41,North,0,0.0,0.0,53,0.00,,,0.00,81,Wunderground v.1.15,2013-01-10 15:40:00,
2013-01-10 10:45:00,56.3,39.9,30.41,NNE,21,0.0,2.0,54,0.00,,,0.00,100,Wunderground v.1.15,2013-01-10 15:45:00,
2013-01-10 10:55:00,56.5,40.0,30.41,NE,47,2.0,2.0,54,0.00,,,0.00,204,Wunderground v.1.15,2013-01-10 15:55:00,
2013-01-10 11:00:00,56.9,39.9,30.41,NE,45,1.0,4.0,53,0.00,,,0.00,271,Wunderground v.1.15,2013-01-10 16:00:00,
2013-01-10 11:10:00,57.5,40.0,30.40,NE,52,2.0,2.0,52,0.00,,,0.00,347,Wunderground v.1.15,2013-01-10 16:10:00,
2013-01-10 11:15:00,57.8,39.8,30.40,NNE,27,1.0,2.0,51,0.00,,,0.00,378,Wunderground v.1.15,2013-01-10 16:15:00,
2013-01-10 11:25:00,58.4,39.8,30.40,NE,37,1.0,2.0,50,0.00,,,0.00,113,Wunderground v.1.15,2013-01-10 16:25:00,
2013-01-10 11:30:00,58.7,40.1,30.40,North,3,1.0,1.0,50,0.00,,,0.00,104,Wunderground v.1.15,2013-01-10 16:30:00,
2013-01-10 11:40:00,59.3,39.6,30.38,NE,48,1.0,1.0,48,0.00,,,0.00,364,Wunderground v.1.15,2013-01-10 16:40:00,
2013-01-10 11:50:00,59.8,39.5,30.37,NE,34,0.0,0.0,47,0.00,,,0.00,128,Wunderground v.1.15,2013-01-10 16:50:00,
2013-01-10 12:00:00,59.9,40.7,30.37,NE,52,1.0,1.0,49,0.00,,,0.00,150,Wunderground v.1.15,2013-01-10 17:00:00,
2013-01-10 12:10:00,60.2,39.9,30.37,ENE,68,1.0,1.0,47,0.00,,,0.00,181,Wunderground v.1.15,2013-01-10 17:10:00,
2013-01-10 12:15:00,60.5,39.6,30.37,East,99,1.0,1.0,46,0.00,,,0.00,155,Wunderground v.1.15,2013-01-10 17:15:00,
2013-01-10 12:25:00,61.2,40.2,30.36,ENE,73,0.0,6.0,46,0.00,,,0.00,234,Wunderground v.1.15,2013-01-10 17:25:00,
2013-01-10 12:35:00,61.8,40.2,30.35,NNE,13,0.0,1.0,45,0.00,,,0.00,301,Wunderground v.1.15,2013-01-10 17:35:00,
2013-01-10 12:40:00,62.1,41.1,30.35,East,85,1.0,1.0,46,0.00,,,0.00,223,Wunderground v.1.15,2013-01-10 17:40:00,
2013-01-10 12:50:00,62.1,41.1,30.34,NE,42,1.0,1.0,46,0.00,,,0.00,120,Wunderground v.1.15,2013-01-10 17:50:00,
2013-01-10 12:55:00,62.0,41.5,30.34,NE,54,1.0,2.0,47,0.00,,,0.00,125,Wunderground v.1.15,2013-01-10 17:55:00,
2013-01-10 13:00:00,61.8,41.9,30.34,ENE,73,1.0,1.0,48,0.00,,,0.00,151,Wunderground v.1.15,2013-01-10 18:00:00,
2013-01-10 13:10:00,62.0,42.1,30.34,ESE,110,0.0,0.0,48,0.00,,,0.00,137,Wunderground v.1.15,2013-01-10 18:10:00,
2013-01-10 13:15:00,62.1,42.2,30.34,ESE,110,0.0,0.0,48,0.00,,,0.00,135,Wunderground v.1.15,2013-01-10 18:15:00,
2013-01-10 13:25:00,62.3,42.3,30.33,ENE,76,0.0,0.0,48,0.00,,,0.00,113,Wunderground v.1.15,2013-01-10 18:25:00,
2013-01-10 13:35:00,62.3,42.9,30.33,SE,124,0.0,0.0,49,0.00,,,0.00,107,Wunderground v.1.15,2013-01-10 18:35:00,
2013-01-10 13:40:00,62.3,42.9,30.33,NNE,28,0.0,0.0,49,0.00,,,0.00,123,Wunderground v.1.15,2013-01-10 18:40:00,
2013-01-10 13:50:00,62.6,43.2,30.33,ENE,69,0.0,0.0,49,0.00,,,0.00,114,Wunderground v.1.15,2013-01-10 18:50:00,
2013-01-10 13:55:00,62.4,43.5,30.33,NNE,27,0.0,0.0,50,0.00,,,0.00,118,Wunderground v.1.15,2013-01-10 18:55:00,
2013-01-10 14:00:00,62.4,43.0,30.33,NE,51,0.0,0.0,49,0.00,,,0.00,113,Wunderground v.1.15,2013-01-10 19:00:00,
2013-01-10 14:05:00,62.4,43.5,30.33,NNE,30,0.0,0.0,50,0.00,,,0.00,107,Wunderground v.1.15,2013-01-10 19:05:00,
2013-01-10 14:15:00,62.4,43.5,30.33,NNE,30,0.0,0.0,50,0.00,,,0.00,104,Wunderground v.1.15,2013-01-10 19:15:00,
2013-01-10 14:20:00,62.4,43.5,30.33,North,32767,-999.0,0.0,50,0.00,,,0.00,107,Wunderground v.1.15,2013-01-10 19:20:00,
2013-01-10 14:30:00,62.6,44.2,30.33,North,32767,-999.0,0.0,51,0.00,,,0.00,104,Wunderground v.1.15,2013-01-10 19:30:00,
2013-01-10 14:35:00,62.6,44.2,30.32,North,32767,-999.0,0.0,51,0.00,,,0.00,102,Wunderground v.1.15,2013-01-10 19:35:00,
2013-01-10 14:45:00,62.6,44.7,30.32,North,32767,-999.0,0.0,52,0.00,,,0.00,102,Wunderground v.1.15,2013-01-10 19:45:00,
2013-01-10 14:50:00,62.4,44.5,30.32,North,32767,-999.0,0.0,52,0.00,,,0.00,100,Wunderground v.1.15,2013-01-10 19:50:00,
2013-01-10 15:00:00,62.3,44.9,30.32,North,32767,-999.0,0.0,53,0.00,,,0.00,100,Wunderground v.1.15,2013-01-10 20:00:00,
2013-01-10 15:05:00,62.4,45.0,30.33,North,32767,-999.0,0.0,53,0.00,,,0.00,97,Wunderground v.1.15,2013-01-10 20:05:00,
2013-01-10 15:15:00,62.4,45.0,30.33,North,32767,-999.0,0.0,53,0.00,,,0.00,90,Wunderground v.1.15,2013-01-10 20:15:00,
2013-01-10 15:25:00,62.4,45.5,30.33,North,32767,-999.0,0.0,54,0.00,,,0.00,81,Wunderground v.1.15,2013-01-10 20:25:00,
2013-01-10 15:35:00,62.1,45.7,30.33,North,32767,-999.0,0.0,55,0.00,,,0.00,76,Wunderground v.1.15,2013-01-10 20:35:00,
2013-01-10 15:45:00,62.1,45.7,30.33,North,32767,-999.0,0.0,55,0.00,,,0.00,72,Wunderground v.1.15,2013-01-10 20:45:00,
2013-01-10 15:55:00,62.1,46.2,30.33,North,32767,-999.0,0.0,56,0.00,,,0.00,69,Wunderground v.1.15,2013-01-10 20:55:00,
2013-01-10 16:00:00,62.1,46.2,30.33,ENE,71,0.0,0.0,56,0.00,,,0.00,70,Wunderground v.1.15,2013-01-10 21:00:00,
2013-01-10 16:10:00,62.1,46.2,30.33,ENE,71,0.0,0.0,56,0.00,,,0.00,63,Wunderground v.1.15,2013-01-10 21:10:00,
2013-01-10 16:15:00,62.1,46.2,30.33,North,32767,-999.0,0.0,56,0.00,,,0.00,63,Wunderground v.1.15,2013-01-10 21:15:00,
2013-01-10 16:20:00,62.1,46.2,30.33,North,32767,-999.0,0.0,56,0.00,,,0.00,56,Wunderground v.1.15,2013-01-10 21:20:00,
2013-01-10 16:30:00,61.8,46.4,30.33,North,32767,-999.0,0.0,57,0.00,,,0.00,44,Wunderground v.1.15,2013-01-10 21:30:00,
2013-01-10 16:40:00,61.5,46.6,30.33,North,32767,-999.0,0.0,58,0.00,,,0.00,30,Wunderground v.1.15,2013-01-10 21:40:00,
2013-01-10 16:50:00,61.2,46.3,30.33,North,32767,-999.0,0.0,58,0.00,,,0.00,21,Wunderground v.1.15,2013-01-10 21:50:00,
2013-01-10 17:00:00,60.7,46.7,30.33,North,32767,-999.0,0.0,60,0.00,,,0.00,14,Wunderground v.1.15,2013-01-10 22:00:00,
2013-01-10 17:10:00,60.2,46.7,30.33,North,32767,-999.0,0.0,61,0.00,,,0.00,0,Wunderground v.1.15,2013-01-10 22:10:00,
2013-01-10 17:20:00,59.6,46.1,30.33,North,32767,-999.0,0.0,61,0.00,,,0.00,0,Wunderground v.1.15,2013-01-10 22:20:00,